sensor_id;sensor_type;location;lat;lon;timestamp;temperature;humidity
13344;DHT22;6741;48.964;9.406;2023-05-07T00:00:44;12.50;99.90
13344;DHT22;6741;48.964;9.406;2023-05-07T00:03:11;12.60;99.90
13344;DHT22;6741;48.964;9.406;2023-05-07T00:05:39;12.60;99.90
13344;DHT22;6741;48.964;9.406;2023-05-07T00:08:07;12.50;99.90
13344;DHT22;6741;48.964;9.406;2023-05-07T00:10:33;12.50;99.90
13344;DHT22;6741;48.964;9.406;2023-05-07T00:13:02;12.50;99.90
13344;DHT22;6741;48.964;9.406;2023-05-07T00:15:29;12.40;99.90
13344;DHT22;6741;48.964;9.406;2023-05-07T00:17:55;12.40;99.90
13344;DHT22;6741;48.964;9.406;2023-05-07T00:20:24;12.40;99.90
13344;DHT22;6741;48.964;9.406;2023-05-07T00:22:51;12.30;99.90
13344;DHT22;6741;48.964;9.406;2023-05-07T00:25:18;12.30;99.90
13344;DHT22;6741;48.964;9.406;2023-05-07T00:27:45;12.20;99.90
13344;DHT22;6741;48.964;9.406;2023-05-07T00:30:14;12.30;99.90
13344;DHT22;6741;48.964;9.406;2023-05-07T00:32:41;12.30;99.90
13344;DHT22;6741;48.964;9.406;2023-05-07T00:35:08;12.30;99.90
13344;DHT22;6741;48.964;9.406;2023-05-07T00:37:35;12.20;99.90
13344;DHT22;6741;48.964;9.406;2023-05-07T00:40:03;12.20;99.90
13344;DHT22;6741;48.964;9.406;2023-05-07T00:42:32;12.20;99.90
13344;DHT22;6741;48.964;9.406;2023-05-07T00:44:59;12.20;99.90
13344;DHT22;6741;48.964;9.406;2023-05-07T00:47:27;12.10;99.90
13344;DHT22;6741;48.964;9.406;2023-05-07T00:49:54;12.10;99.90
13344;DHT22;6741;48.964;9.406;2023-05-07T00:52:24;12.10;99.90
13344;DHT22;6741;48.964;9.406;2023-05-07T00:54:52;12.10;99.90
13344;DHT22;6741;48.964;9.406;2023-05-07T00:57:21;12.00;99.90
13344;DHT22;6741;48.964;9.406;2023-05-07T00:59:48;12.10;99.90
13344;DHT22;6741;48.964;9.406;2023-05-07T01:02:16;12.00;99.90
13344;DHT22;6741;48.964;9.406;2023-05-07T01:04:44;12.00;99.90
13344;DHT22;6741;48.964;9.406;2023-05-07T01:07:11;11.90;99.90
13344;DHT22;6741;48.964;9.406;2023-05-07T01:09:39;11.90;99.90
13344;DHT22;6741;48.964;9.406;2023-05-07T01:12:07;11.90;99.90
13344;DHT22;6741;48.964;9.406;2023-05-07T01:14:35;11.90;99.90
13344;DHT22;6741;48.964;9.406;2023-05-07T01:17:01;12.00;99.90
13344;DHT22;6741;48.964;9.406;2023-05-07T01:19:29;11.90;99.90
13344;DHT22;6741;48.964;9.406;2023-05-07T01:22:08;11.80;99.90
13344;DHT22;6741;48.964;9.406;2023-05-07T01:24:38;11.70;99.90
13344;DHT22;6741;48.964;9.406;2023-05-07T01:27:04;11.70;99.90
13344;DHT22;6741;48.964;9.406;2023-05-07T01:29:31;11.60;99.90
13344;DHT22;6741;48.964;9.406;2023-05-07T01:32:00;11.70;99.90
13344;DHT22;6741;48.964;9.406;2023-05-07T01:34:29;11.70;99.90
13344;DHT22;6741;48.964;9.406;2023-05-07T01:36:58;11.60;99.90
13344;DHT22;6741;48.964;9.406;2023-05-07T01:39:27;11.60;99.90
13344;DHT22;6741;48.964;9.406;2023-05-07T01:41:56;11.60;99.90
13344;DHT22;6741;48.964;9.406;2023-05-07T01:44:23;11.50;99.90
13344;DHT22;6741;48.964;9.406;2023-05-07T01:46:51;11.60;99.90
13344;DHT22;6741;48.964;9.406;2023-05-07T01:49:18;11.60;99.90
13344;DHT22;6741;48.964;9.406;2023-05-07T01:51:45;11.60;99.90
13344;DHT22;6741;48.964;9.406;2023-05-07T01:54:12;11.60;99.90
13344;DHT22;6741;48.964;9.406;2023-05-07T01:56:40;11.60;99.90
13344;DHT22;6741;48.964;9.406;2023-05-07T01:59:08;11.60;99.90
13344;DHT22;6741;48.964;9.406;2023-05-07T02:01:36;11.50;99.90
13344;DHT22;6741;48.964;9.406;2023-05-07T02:04:03;11.60;99.90
13344;DHT22;6741;48.964;9.406;2023-05-07T02:06:30;11.60;99.90
13344;DHT22;6741;48.964;9.406;2023-05-07T02:08:57;11.50;99.90
13344;DHT22;6741;48.964;9.406;2023-05-07T02:11:24;11.50;99.90
13344;DHT22;6741;48.964;9.406;2023-05-07T02:13:51;11.50;99.90
13344;DHT22;6741;48.964;9.406;2023-05-07T02:16:20;11.40;99.90
13344;DHT22;6741;48.964;9.406;2023-05-07T02:18:47;11.40;99.90
13344;DHT22;6741;48.964;9.406;2023-05-07T02:21:14;11.40;99.90
13344;DHT22;6741;48.964;9.406;2023-05-07T02:23:41;11.40;99.90
13344;DHT22;6741;48.964;9.406;2023-05-07T02:26:08;11.40;99.90
13344;DHT22;6741;48.964;9.406;2023-05-07T02:28:35;11.50;99.90
13344;DHT22;6741;48.964;9.406;2023-05-07T02:31:02;11.50;99.90
13344;DHT22;6741;48.964;9.406;2023-05-07T02:33:31;11.60;99.90
13344;DHT22;6741;48.964;9.406;2023-05-07T02:36:06;11.60;99.90
13344;DHT22;6741;48.964;9.406;2023-05-07T02:38:33;11.60;99.90
13344;DHT22;6741;48.964;9.406;2023-05-07T02:41:00;11.60;99.90
13344;DHT22;6741;48.964;9.406;2023-05-07T02:43:27;11.50;99.90
13344;DHT22;6741;48.964;9.406;2023-05-07T02:46:01;11.50;99.90
13344;DHT22;6741;48.964;9.406;2023-05-07T02:48:28;11.40;99.90
13344;DHT22;6741;48.964;9.406;2023-05-07T02:50:56;11.30;99.90
13344;DHT22;6741;48.964;9.406;2023-05-07T02:53:23;11.30;99.90
13344;DHT22;6741;48.964;9.406;2023-05-07T02:55:51;11.20;99.90
13344;DHT22;6741;48.964;9.406;2023-05-07T02:58:18;11.10;99.90
13344;DHT22;6741;48.964;9.406;2023-05-07T03:00:45;11.00;99.90
13344;DHT22;6741;48.964;9.406;2023-05-07T03:03:12;11.00;99.90
13344;DHT22;6741;48.964;9.406;2023-05-07T03:05:39;10.90;99.90
13344;DHT22;6741;48.964;9.406;2023-05-07T03:08:08;10.90;99.90
13344;DHT22;6741;48.964;9.406;2023-05-07T03:10:35;11.00;99.90
13344;DHT22;6741;48.964;9.406;2023-05-07T03:13:03;11.00;99.90
13344;DHT22;6741;48.964;9.406;2023-05-07T03:15:29;11.00;99.90
13344;DHT22;6741;48.964;9.406;2023-05-07T03:17:56;10.90;99.90
13344;DHT22;6741;48.964;9.406;2023-05-07T03:20:23;10.90;99.90
13344;DHT22;6741;48.964;9.406;2023-05-07T03:22:50;10.80;99.90
13344;DHT22;6741;48.964;9.406;2023-05-07T03:25:18;10.70;99.90
13344;DHT22;6741;48.964;9.406;2023-05-07T03:27:45;10.70;99.90
13344;DHT22;6741;48.964;9.406;2023-05-07T03:30:12;10.80;99.90
13344;DHT22;6741;48.964;9.406;2023-05-07T03:32:40;10.80;99.90
13344;DHT22;6741;48.964;9.406;2023-05-07T03:35:07;10.90;99.90
13344;DHT22;6741;48.964;9.406;2023-05-07T03:37:34;10.90;99.90
13344;DHT22;6741;48.964;9.406;2023-05-07T03:40:01;11.00;99.90
13344;DHT22;6741;48.964;9.406;2023-05-07T03:42:30;10.90;99.90
13344;DHT22;6741;48.964;9.406;2023-05-07T03:44:57;10.80;99.90
13344;DHT22;6741;48.964;9.406;2023-05-07T03:47:24;10.70;99.90
13344;DHT22;6741;48.964;9.406;2023-05-07T03:49:50;10.70;99.90
13344;DHT22;6741;48.964;9.406;2023-05-07T03:52:19;10.70;99.90
13344;DHT22;6741;48.964;9.406;2023-05-07T03:54:51;10.70;99.90
13344;DHT22;6741;48.964;9.406;2023-05-07T03:57:18;10.70;99.90
13344;DHT22;6741;48.964;9.406;2023-05-07T03:59:46;10.70;99.90
13344;DHT22;6741;48.964;9.406;2023-05-07T04:02:13;10.60;99.90
13344;DHT22;6741;48.964;9.406;2023-05-07T04:04:40;10.60;99.90
13344;DHT22;6741;48.964;9.406;2023-05-07T04:07:07;10.60;99.90
13344;DHT22;6741;48.964;9.406;2023-05-07T04:09:33;10.60;99.90
13344;DHT22;6741;48.964;9.406;2023-05-07T04:12:00;10.70;99.90
13344;DHT22;6741;48.964;9.406;2023-05-07T04:14:27;10.70;99.90
13344;DHT22;6741;48.964;9.406;2023-05-07T04:16:57;10.70;99.90
13344;DHT22;6741;48.964;9.406;2023-05-07T04:19:24;10.80;99.90
13344;DHT22;6741;48.964;9.406;2023-05-07T04:21:51;10.80;99.90
13344;DHT22;6741;48.964;9.406;2023-05-07T04:24:18;10.90;99.90
13344;DHT22;6741;48.964;9.406;2023-05-07T04:26:45;10.90;99.90
13344;DHT22;6741;48.964;9.406;2023-05-07T04:29:11;10.90;99.90
13344;DHT22;6741;48.964;9.406;2023-05-07T04:31:38;10.90;99.90
13344;DHT22;6741;48.964;9.406;2023-05-07T04:34:06;11.00;99.90
13344;DHT22;6741;48.964;9.406;2023-05-07T04:36:34;11.10;99.90
13344;DHT22;6741;48.964;9.406;2023-05-07T04:39:02;11.20;99.90
13344;DHT22;6741;48.964;9.406;2023-05-07T04:41:29;11.30;99.90
13344;DHT22;6741;48.964;9.406;2023-05-07T04:43:57;11.30;99.90
13344;DHT22;6741;48.964;9.406;2023-05-07T04:46:24;11.40;99.90
13344;DHT22;6741;48.964;9.406;2023-05-07T04:48:51;11.40;99.90
13344;DHT22;6741;48.964;9.406;2023-05-07T04:51:19;11.50;99.90
13344;DHT22;6741;48.964;9.406;2023-05-07T04:53:46;11.50;99.90
13344;DHT22;6741;48.964;9.406;2023-05-07T04:56:13;11.60;99.90
13344;DHT22;6741;48.964;9.406;2023-05-07T04:58:40;11.60;99.90
13344;DHT22;6741;48.964;9.406;2023-05-07T05:01:07;11.60;99.90
13344;DHT22;6741;48.964;9.406;2023-05-07T05:03:34;11.70;99.90
13344;DHT22;6741;48.964;9.406;2023-05-07T05:06:01;11.80;99.90
13344;DHT22;6741;48.964;9.406;2023-05-07T05:08:29;12.00;99.90
13344;DHT22;6741;48.964;9.406;2023-05-07T05:10:56;12.10;99.90
13344;DHT22;6741;48.964;9.406;2023-05-07T05:13:23;12.20;99.90
13344;DHT22;6741;48.964;9.406;2023-05-07T05:15:50;12.30;99.90
13344;DHT22;6741;48.964;9.406;2023-05-07T05:18:17;12.50;99.90
13344;DHT22;6741;48.964;9.406;2023-05-07T05:20:44;12.60;99.90
13344;DHT22;6741;48.964;9.406;2023-05-07T05:23:11;12.80;99.90
13344;DHT22;6741;48.964;9.406;2023-05-07T05:25:39;12.80;99.90
13344;DHT22;6741;48.964;9.406;2023-05-07T05:28:06;12.80;99.90
13344;DHT22;6741;48.964;9.406;2023-05-07T05:30:33;12.80;99.90
13344;DHT22;6741;48.964;9.406;2023-05-07T05:33:00;12.90;99.90
13344;DHT22;6741;48.964;9.406;2023-05-07T05:35:27;12.90;99.90
13344;DHT22;6741;48.964;9.406;2023-05-07T05:37:53;13.00;99.90
13344;DHT22;6741;48.964;9.406;2023-05-07T05:40:20;13.00;99.90
13344;DHT22;6741;48.964;9.406;2023-05-07T05:42:49;13.00;99.90
13344;DHT22;6741;48.964;9.406;2023-05-07T05:45:16;13.10;99.90
13344;DHT22;6741;48.964;9.406;2023-05-07T05:47:43;13.10;99.90
13344;DHT22;6741;48.964;9.406;2023-05-07T05:50:10;13.30;99.90
13344;DHT22;6741;48.964;9.406;2023-05-07T05:52:37;13.50;99.90
13344;DHT22;6741;48.964;9.406;2023-05-07T05:55:04;13.60;99.90
13344;DHT22;6741;48.964;9.406;2023-05-07T05:57:32;13.70;99.90
13344;DHT22;6741;48.964;9.406;2023-05-07T06:00:00;13.80;99.90
13344;DHT22;6741;48.964;9.406;2023-05-07T06:02:28;14.00;99.90
13344;DHT22;6741;48.964;9.406;2023-05-07T06:04:55;14.10;99.90
13344;DHT22;6741;48.964;9.406;2023-05-07T06:07:22;14.30;99.90
13344;DHT22;6741;48.964;9.406;2023-05-07T06:09:49;14.50;99.90
13344;DHT22;6741;48.964;9.406;2023-05-07T06:12:16;14.70;99.90
13344;DHT22;6741;48.964;9.406;2023-05-07T06:14:43;14.70;99.90
13344;DHT22;6741;48.964;9.406;2023-05-07T06:17:11;14.70;99.00
13344;DHT22;6741;48.964;9.406;2023-05-07T06:19:38;14.70;96.40
13344;DHT22;6741;48.964;9.406;2023-05-07T06:22:05;14.90;93.80
13344;DHT22;6741;48.964;9.406;2023-05-07T06:24:32;15.00;96.40
13344;DHT22;6741;48.964;9.406;2023-05-07T06:26:59;15.10;96.90
13344;DHT22;6741;48.964;9.406;2023-05-07T06:29:26;15.20;91.20
13344;DHT22;6741;48.964;9.406;2023-05-07T06:31:53;15.40;96.40
13344;DHT22;6741;48.964;9.406;2023-05-07T06:34:21;15.70;74.40
13344;DHT22;6741;48.964;9.406;2023-05-07T06:36:48;15.90;32.00
13344;DHT22;6741;48.964;9.406;2023-05-07T06:39:15;15.90;1.00
13344;DHT22;6741;48.964;9.406;2023-05-07T06:41:42;16.00;5.80
13344;DHT22;6741;48.964;9.406;2023-05-07T06:44:09;16.20;1.00
13344;DHT22;6741;48.964;9.406;2023-05-07T06:46:36;16.40;1.00
13344;DHT22;6741;48.964;9.406;2023-05-07T06:49:03;16.50;1.00
13344;DHT22;6741;48.964;9.406;2023-05-07T06:51:31;16.70;1.00
13344;DHT22;6741;48.964;9.406;2023-05-07T06:53:58;16.80;1.00
13344;DHT22;6741;48.964;9.406;2023-05-07T06:56:25;16.80;1.00
13344;DHT22;6741;48.964;9.406;2023-05-07T06:58:52;16.70;1.00
13344;DHT22;6741;48.964;9.406;2023-05-07T07:01:18;16.70;1.00
13344;DHT22;6741;48.964;9.406;2023-05-07T07:03:45;16.70;1.00
13344;DHT22;6741;48.964;9.406;2023-05-07T07:06:13;16.80;1.00
13344;DHT22;6741;48.964;9.406;2023-05-07T07:08:41;16.80;1.00
13344;DHT22;6741;48.964;9.406;2023-05-07T07:11:08;16.80;1.00
13344;DHT22;6741;48.964;9.406;2023-05-07T07:13:35;16.80;1.00
13344;DHT22;6741;48.964;9.406;2023-05-07T07:16:02;16.90;1.00
13344;DHT22;6741;48.964;9.406;2023-05-07T07:18:29;17.10;1.00
13344;DHT22;6741;48.964;9.406;2023-05-07T07:20:56;17.30;1.00
13344;DHT22;6741;48.964;9.406;2023-05-07T07:23:23;17.60;1.00
13344;DHT22;6741;48.964;9.406;2023-05-07T07:25:51;17.80;1.00
13344;DHT22;6741;48.964;9.406;2023-05-07T07:28:20;18.00;1.00
13344;DHT22;6741;48.964;9.406;2023-05-07T07:30:48;18.20;1.00
13344;DHT22;6741;48.964;9.406;2023-05-07T07:33:15;18.40;1.00
13344;DHT22;6741;48.964;9.406;2023-05-07T07:35:42;18.60;99.90
13344;DHT22;6741;48.964;9.406;2023-05-07T07:38:09;18.70;99.90
13344;DHT22;6741;48.964;9.406;2023-05-07T07:40:36;18.60;99.90
13344;DHT22;6741;48.964;9.406;2023-05-07T07:43:04;18.60;99.90
13344;DHT22;6741;48.964;9.406;2023-05-07T07:45:31;18.70;99.90
13344;DHT22;6741;48.964;9.406;2023-05-07T07:47:58;18.80;99.90
13344;DHT22;6741;48.964;9.406;2023-05-07T07:50:25;19.00;99.90
13344;DHT22;6741;48.964;9.406;2023-05-07T07:52:52;19.40;1.00
13344;DHT22;6741;48.964;9.406;2023-05-07T07:55:20;19.80;99.90
13344;DHT22;6741;48.964;9.406;2023-05-07T07:57:48;19.90;1.00
13344;DHT22;6741;48.964;9.406;2023-05-07T08:00:17;20.30;99.90
13344;DHT22;6741;48.964;9.406;2023-05-07T08:02:44;20.40;99.90
13344;DHT22;6741;48.964;9.406;2023-05-07T08:05:11;20.70;1.00
13344;DHT22;6741;48.964;9.406;2023-05-07T08:07:38;20.70;1.00
13344;DHT22;6741;48.964;9.406;2023-05-07T08:10:06;20.70;1.00
13344;DHT22;6741;48.964;9.406;2023-05-07T08:12:33;20.70;99.90
13344;DHT22;6741;48.964;9.406;2023-05-07T08:15:00;20.70;1.00
13344;DHT22;6741;48.964;9.406;2023-05-07T08:17:28;20.70;32.30
13344;DHT22;6741;48.964;9.406;2023-05-07T08:19:55;20.60;99.90
13344;DHT22;6741;48.964;9.406;2023-05-07T08:22:22;20.40;59.30
13344;DHT22;6741;48.964;9.406;2023-05-07T08:24:49;20.40;1.00
13344;DHT22;6741;48.964;9.406;2023-05-07T08:27:17;20.50;99.90
13344;DHT22;6741;48.964;9.406;2023-05-07T08:29:44;20.80;99.90
13344;DHT22;6741;48.964;9.406;2023-05-07T08:32:13;21.00;1.00
13344;DHT22;6741;48.964;9.406;2023-05-07T08:34:41;21.20;99.90
13344;DHT22;6741;48.964;9.406;2023-05-07T08:37:08;21.20;1.00
13344;DHT22;6741;48.964;9.406;2023-05-07T08:39:35;21.40;1.00
13344;DHT22;6741;48.964;9.406;2023-05-07T08:42:04;21.50;99.90
13344;DHT22;6741;48.964;9.406;2023-05-07T08:44:34;21.60;47.80
13344;DHT22;6741;48.964;9.406;2023-05-07T08:47:01;21.90;99.90
13344;DHT22;6741;48.964;9.406;2023-05-07T08:49:29;22.10;99.90
13344;DHT22;6741;48.964;9.406;2023-05-07T08:51:57;22.30;1.00
13344;DHT22;6741;48.964;9.406;2023-05-07T08:54:25;22.20;1.00
13344;DHT22;6741;48.964;9.406;2023-05-07T08:56:52;22.40;99.90
13344;DHT22;6741;48.964;9.406;2023-05-07T08:59:19;22.50;99.90
13344;DHT22;6741;48.964;9.406;2023-05-07T09:01:46;22.60;99.90
13344;DHT22;6741;48.964;9.406;2023-05-07T09:04:13;22.60;99.90
13344;DHT22;6741;48.964;9.406;2023-05-07T09:06:40;22.40;99.90
13344;DHT22;6741;48.964;9.406;2023-05-07T09:09:09;22.10;1.00
13344;DHT22;6741;48.964;9.406;2023-05-07T09:11:36;22.10;99.90
13344;DHT22;6741;48.964;9.406;2023-05-07T09:14:02;21.90;87.00
13344;DHT22;6741;48.964;9.406;2023-05-07T09:16:30;22.10;82.40
13344;DHT22;6741;48.964;9.406;2023-05-07T09:18:58;22.30;1.00
13344;DHT22;6741;48.964;9.406;2023-05-07T09:21:26;22.60;99.90
13344;DHT22;6741;48.964;9.406;2023-05-07T09:23:54;22.80;99.90
13344;DHT22;6741;48.964;9.406;2023-05-07T09:26:24;23.10;99.90
13344;DHT22;6741;48.964;9.406;2023-05-07T09:28:51;23.30;99.90
13344;DHT22;6741;48.964;9.406;2023-05-07T09:31:19;23.50;99.90
13344;DHT22;6741;48.964;9.406;2023-05-07T09:33:46;23.60;99.90
13344;DHT22;6741;48.964;9.406;2023-05-07T09:36:14;23.80;99.90
13344;DHT22;6741;48.964;9.406;2023-05-07T09:38:41;23.80;1.00
13344;DHT22;6741;48.964;9.406;2023-05-07T09:41:09;23.90;99.90
13344;DHT22;6741;48.964;9.406;2023-05-07T09:43:39;24.10;99.90
13344;DHT22;6741;48.964;9.406;2023-05-07T09:46:12;24.20;99.90
13344;DHT22;6741;48.964;9.406;2023-05-07T09:48:41;23.80;99.90
13344;DHT22;6741;48.964;9.406;2023-05-07T09:51:23;24.00;99.90
13344;DHT22;6741;48.964;9.406;2023-05-07T09:53:52;24.20;99.90
13344;DHT22;6741;48.964;9.406;2023-05-07T09:56:19;24.30;99.90
13344;DHT22;6741;48.964;9.406;2023-05-07T09:58:49;24.60;99.90
13344;DHT22;6741;48.964;9.406;2023-05-07T10:01:19;24.70;1.00
13344;DHT22;6741;48.964;9.406;2023-05-07T10:03:49;24.90;1.00
13344;DHT22;6741;48.964;9.406;2023-05-07T10:06:17;24.80;1.00
13344;DHT22;6741;48.964;9.406;2023-05-07T10:08:46;24.60;1.00
13344;DHT22;6741;48.964;9.406;2023-05-07T10:11:13;24.60;1.00
13344;DHT22;6741;48.964;9.406;2023-05-07T10:13:41;24.80;1.00
13344;DHT22;6741;48.964;9.406;2023-05-07T10:16:10;24.80;1.00
13344;DHT22;6741;48.964;9.406;2023-05-07T10:18:38;25.10;15.40
13344;DHT22;6741;48.964;9.406;2023-05-07T10:21:08;25.50;99.30
13344;DHT22;6741;48.964;9.406;2023-05-07T10:23:35;26.00;99.90
13344;DHT22;6741;48.964;9.406;2023-05-07T10:26:05;26.40;99.90
13344;DHT22;6741;48.964;9.406;2023-05-07T10:28:36;26.70;99.90
13344;DHT22;6741;48.964;9.406;2023-05-07T10:31:18;26.90;99.90
13344;DHT22;6741;48.964;9.406;2023-05-07T10:33:47;26.60;1.00
13344;DHT22;6741;48.964;9.406;2023-05-07T10:36:16;26.90;1.00
13344;DHT22;6741;48.964;9.406;2023-05-07T10:38:44;26.90;99.90
13344;DHT22;6741;48.964;9.406;2023-05-07T10:41:11;27.20;1.00
13344;DHT22;6741;48.964;9.406;2023-05-07T10:43:41;27.40;1.00
13344;DHT22;6741;48.964;9.406;2023-05-07T10:46:15;27.10;52.30
13344;DHT22;6741;48.964;9.406;2023-05-07T10:49:10;27.50;1.00
13344;DHT22;6741;48.964;9.406;2023-05-07T10:51:41;27.40;99.90
13344;DHT22;6741;48.964;9.406;2023-05-07T10:54:21;27.10;1.00
13344;DHT22;6741;48.964;9.406;2023-05-07T10:56:49;27.30;1.00
13344;DHT22;6741;48.964;9.406;2023-05-07T10:59:36;27.80;1.00
13344;DHT22;6741;48.964;9.406;2023-05-07T11:02:10;27.90;24.30
13344;DHT22;6741;48.964;9.406;2023-05-07T11:04:39;27.80;70.80
13344;DHT22;6741;48.964;9.406;2023-05-07T11:07:33;27.10;1.00
13344;DHT22;6741;48.964;9.406;2023-05-07T11:10:02;27.60;99.90
13344;DHT22;6741;48.964;9.406;2023-05-07T11:12:49;28.50;1.00
13344;DHT22;6741;48.964;9.406;2023-05-07T11:15:38;29.30;1.00
13344;DHT22;6741;48.964;9.406;2023-05-07T11:18:06;29.90;1.00
13344;DHT22;6741;48.964;9.406;2023-05-07T11:20:53;30.20;17.00
13344;DHT22;6741;48.964;9.406;2023-05-07T11:23:57;30.20;1.00
13344;DHT22;6741;48.964;9.406;2023-05-07T11:26:29;30.40;1.00
13344;DHT22;6741;48.964;9.406;2023-05-07T11:28:57;30.60;99.90
13344;DHT22;6741;48.964;9.406;2023-05-07T11:31:27;30.80;1.00
13344;DHT22;6741;48.964;9.406;2023-05-07T11:33:57;31.00;1.00
13344;DHT22;6741;48.964;9.406;2023-05-07T11:36:24;29.40;99.90
13344;DHT22;6741;48.964;9.406;2023-05-07T11:38:52;28.50;99.90
13344;DHT22;6741;48.964;9.406;2023-05-07T11:41:19;27.90;1.00
13344;DHT22;6741;48.964;9.406;2023-05-07T11:43:55;27.70;99.90
13344;DHT22;6741;48.964;9.406;2023-05-07T11:46:22;28.20;99.90
13344;DHT22;6741;48.964;9.406;2023-05-07T11:48:49;28.00;99.90
13344;DHT22;6741;48.964;9.406;2023-05-07T11:51:22;27.80;99.90
13344;DHT22;6741;48.964;9.406;2023-05-07T11:53:52;27.20;99.90
13344;DHT22;6741;48.964;9.406;2023-05-07T11:56:20;26.60;1.00
13344;DHT22;6741;48.964;9.406;2023-05-07T11:58:48;26.30;99.90
13344;DHT22;6741;48.964;9.406;2023-05-07T12:01:17;25.80;99.90
13344;DHT22;6741;48.964;9.406;2023-05-07T12:03:45;25.40;1.00
13344;DHT22;6741;48.964;9.406;2023-05-07T12:06:14;25.20;99.90
13344;DHT22;6741;48.964;9.406;2023-05-07T12:08:43;24.90;1.00
13344;DHT22;6741;48.964;9.406;2023-05-07T12:11:14;24.70;1.00
13344;DHT22;6741;48.964;9.406;2023-05-07T12:13:43;24.60;99.90
13344;DHT22;6741;48.964;9.406;2023-05-07T12:16:10;24.20;1.00
13344;DHT22;6741;48.964;9.406;2023-05-07T12:18:37;23.90;99.90
13344;DHT22;6741;48.964;9.406;2023-05-07T12:21:05;23.70;99.90
13344;DHT22;6741;48.964;9.406;2023-05-07T12:23:34;23.70;99.90
13344;DHT22;6741;48.964;9.406;2023-05-07T12:26:03;23.70;99.90
13344;DHT22;6741;48.964;9.406;2023-05-07T12:28:31;23.80;1.00
13344;DHT22;6741;48.964;9.406;2023-05-07T12:31:02;23.80;99.90
13344;DHT22;6741;48.964;9.406;2023-05-07T12:33:29;23.90;1.00
13344;DHT22;6741;48.964;9.406;2023-05-07T12:35:58;23.90;99.90
13344;DHT22;6741;48.964;9.406;2023-05-07T12:38:34;23.80;1.00
13344;DHT22;6741;48.964;9.406;2023-05-07T12:41:04;23.70;1.00
13344;DHT22;6741;48.964;9.406;2023-05-07T12:43:31;23.60;1.00
13344;DHT22;6741;48.964;9.406;2023-05-07T12:46:01;23.50;1.00
13344;DHT22;6741;48.964;9.406;2023-05-07T12:48:28;23.10;90.30
13344;DHT22;6741;48.964;9.406;2023-05-07T12:50:56;22.80;28.80
13344;DHT22;6741;48.964;9.406;2023-05-07T12:53:24;22.70;1.00
13344;DHT22;6741;48.964;9.406;2023-05-07T12:55:54;22.50;99.90
13344;DHT22;6741;48.964;9.406;2023-05-07T12:58:26;22.30;99.90
13344;DHT22;6741;48.964;9.406;2023-05-07T13:00:54;22.10;99.90
13344;DHT22;6741;48.964;9.406;2023-05-07T13:03:25;21.80;1.00
13344;DHT22;6741;48.964;9.406;2023-05-07T13:05:53;21.70;1.00
13344;DHT22;6741;48.964;9.406;2023-05-07T13:08:27;21.60;99.90
13344;DHT22;6741;48.964;9.406;2023-05-07T13:10:55;21.40;99.90
13344;DHT22;6741;48.964;9.406;2023-05-07T13:13:22;21.30;1.00
13344;DHT22;6741;48.964;9.406;2023-05-07T13:15:50;20.70;1.00
13344;DHT22;6741;48.964;9.406;2023-05-07T13:18:17;20.20;1.00
13344;DHT22;6741;48.964;9.406;2023-05-07T13:20:44;19.80;1.00
13344;DHT22;6741;48.964;9.406;2023-05-07T13:23:11;19.20;1.00
13344;DHT22;6741;48.964;9.406;2023-05-07T13:25:38;18.70;99.90
13344;DHT22;6741;48.964;9.406;2023-05-07T13:28:05;18.40;99.90
13344;DHT22;6741;48.964;9.406;2023-05-07T13:30:32;18.10;99.90
13344;DHT22;6741;48.964;9.406;2023-05-07T13:33:00;18.00;99.90
13344;DHT22;6741;48.964;9.406;2023-05-07T13:35:27;17.80;99.90
13344;DHT22;6741;48.964;9.406;2023-05-07T13:37:54;17.70;99.90
13344;DHT22;6741;48.964;9.406;2023-05-07T13:40:22;17.60;99.90
13344;DHT22;6741;48.964;9.406;2023-05-07T13:42:49;17.50;99.90
13344;DHT22;6741;48.964;9.406;2023-05-07T13:45:16;17.40;99.90
13344;DHT22;6741;48.964;9.406;2023-05-07T13:47:43;17.30;99.90
13344;DHT22;6741;48.964;9.406;2023-05-07T13:50:12;17.20;99.90
13344;DHT22;6741;48.964;9.406;2023-05-07T13:52:41;17.20;99.90
13344;DHT22;6741;48.964;9.406;2023-05-07T13:55:09;17.20;99.90
13344;DHT22;6741;48.964;9.406;2023-05-07T13:57:36;17.30;99.90
13344;DHT22;6741;48.964;9.406;2023-05-07T14:00:04;17.20;99.90
13344;DHT22;6741;48.964;9.406;2023-05-07T14:02:32;16.90;99.90
13344;DHT22;6741;48.964;9.406;2023-05-07T14:04:58;16.60;99.90
13344;DHT22;6741;48.964;9.406;2023-05-07T14:07:27;16.50;99.90
13344;DHT22;6741;48.964;9.406;2023-05-07T14:09:54;16.40;99.90
13344;DHT22;6741;48.964;9.406;2023-05-07T14:12:21;16.40;99.90
13344;DHT22;6741;48.964;9.406;2023-05-07T14:14:48;16.30;99.90
13344;DHT22;6741;48.964;9.406;2023-05-07T14:17:15;16.20;99.90
13344;DHT22;6741;48.964;9.406;2023-05-07T14:19:42;16.10;99.90
13344;DHT22;6741;48.964;9.406;2023-05-07T14:22:09;16.10;99.90
13344;DHT22;6741;48.964;9.406;2023-05-07T14:24:38;16.10;99.90
13344;DHT22;6741;48.964;9.406;2023-05-07T14:27:05;16.00;99.90
13344;DHT22;6741;48.964;9.406;2023-05-07T14:29:34;15.90;99.90
13344;DHT22;6741;48.964;9.406;2023-05-07T14:32:02;15.80;99.90
13344;DHT22;6741;48.964;9.406;2023-05-07T14:34:29;15.70;99.90
13344;DHT22;6741;48.964;9.406;2023-05-07T14:36:56;15.80;99.90
13344;DHT22;6741;48.964;9.406;2023-05-07T14:39:23;15.80;99.90
13344;DHT22;6741;48.964;9.406;2023-05-07T14:41:52;15.70;99.90
13344;DHT22;6741;48.964;9.406;2023-05-07T14:44:21;15.60;99.90
13344;DHT22;6741;48.964;9.406;2023-05-07T14:46:48;15.40;99.90
13344;DHT22;6741;48.964;9.406;2023-05-07T14:49:15;15.30;99.90
13344;DHT22;6741;48.964;9.406;2023-05-07T14:51:43;15.30;99.90
13344;DHT22;6741;48.964;9.406;2023-05-07T14:54:10;15.30;99.90
13344;DHT22;6741;48.964;9.406;2023-05-07T14:56:37;15.10;99.90
13344;DHT22;6741;48.964;9.406;2023-05-07T14:59:06;15.00;99.90
13344;DHT22;6741;48.964;9.406;2023-05-07T15:01:34;14.90;99.90
13344;DHT22;6741;48.964;9.406;2023-05-07T15:04:03;15.00;99.90
13344;DHT22;6741;48.964;9.406;2023-05-07T15:06:30;14.90;99.90
13344;DHT22;6741;48.964;9.406;2023-05-07T15:08:57;15.00;99.90
13344;DHT22;6741;48.964;9.406;2023-05-07T15:11:24;15.10;99.90
13344;DHT22;6741;48.964;9.406;2023-05-07T15:13:50;15.10;99.90
13344;DHT22;6741;48.964;9.406;2023-05-07T15:16:19;15.30;99.90
13344;DHT22;6741;48.964;9.406;2023-05-07T15:18:46;15.30;99.90
13344;DHT22;6741;48.964;9.406;2023-05-07T15:21:13;15.30;99.90
13344;DHT22;6741;48.964;9.406;2023-05-07T15:23:40;15.40;99.90
13344;DHT22;6741;48.964;9.406;2023-05-07T15:26:07;15.40;99.90
13344;DHT22;6741;48.964;9.406;2023-05-07T15:28:34;15.40;99.90
13344;DHT22;6741;48.964;9.406;2023-05-07T15:31:01;15.40;99.90
13344;DHT22;6741;48.964;9.406;2023-05-07T15:33:29;15.50;99.90
13344;DHT22;6741;48.964;9.406;2023-05-07T15:35:56;15.60;99.90
13344;DHT22;6741;48.964;9.406;2023-05-07T15:38:24;15.60;99.90
13344;DHT22;6741;48.964;9.406;2023-05-07T15:40:51;15.70;99.90
13344;DHT22;6741;48.964;9.406;2023-05-07T15:43:18;15.70;99.90
13344;DHT22;6741;48.964;9.406;2023-05-07T15:45:46;15.60;99.90
13344;DHT22;6741;48.964;9.406;2023-05-07T15:48:13;15.70;99.90
13344;DHT22;6741;48.964;9.406;2023-05-07T15:50:41;15.80;99.90
13344;DHT22;6741;48.964;9.406;2023-05-07T15:53:08;15.80;99.90
13344;DHT22;6741;48.964;9.406;2023-05-07T15:55:35;15.80;99.90